Главная страница
METAR-TAF:

METAR-TAF

Аэропорты :

Киркенес, Норвегия

широта: 69-44N, долгота: 029-54E, высота над уровнем моря: 9 м

Текущие метеонаблюдения

Эта сводка был подготовлена 47 минут назад, в 18:50 UTC
Ветер 8 Узел от восточно-юго-восточный
Температура -1°C
Влажность 64%
Давление 1007 hPa
Видимость 10 км и более
Нет облачности ниже 1500 м, и нет кучево-дождевой облачности

METAR: ENKR 261850Z 11008KT CAVOK M01/M07 Q1007 RMK WIND 731FT 09014KT

Время: 21:37 (19:37 UTC)

Прогноз

Эта сводка был подготовлена 2 часа и 37 минут назад, в 17:00 UTC
Прогноз действительный с 26-го 18 UTC до 27-го 03 UTC
Ветер 8 Узел от восточный
Видимость 10 км и более
небольшая облачность на высоте 2000 фута
Отдельные облака на высоте 4000 фута

TAF: ENKR 261700Z 2618/2703 08008KT 9999 FEW020 SCT040

Метеонаблюдения и прогнозы для более 4000 аэропортов (сводки METAR и TAF).

Имеющиеся станции представлены на карте желтыми и красными точками.

Чтобы увидеть название станции, наведите на нее мышь.

Затем щелкните, чтобы увидеть метеонаблюдения и метеопрогнозы.

Управление картой: чтобы увеличить масштаб, щелкните зеленые кнопки с черным крестиком; чтобы уменьшить масштаб, щелкните зеленую кнопку с тире; для просмотра соседних карт щелкайте зеленые стрелки.


METAR-TAF: